Time;durP1;ratioP1;P1;durP2;ratioP2;P2;SDS_P1;SDS_P2;PMS_P1;PMS_P2;Temp;Humidity;BMP_temperature;BMP_pressure;BME280_temperature;BME280_humidity;BME280_pressure;Samples;Min_cycle;Max_cycle;Signal;HPM_P1;HPM_P2
2021/04/25 00:00:06;;;;;;;;;;;10.20;99.90;;;;;;5031883;28;19905;-78
2021/04/25 00:02:31;;;;;;;;;;;10.20;99.90;;;;;;5031038;28;19905;-77
2021/04/25 00:04:57;;;;;;;;;;;10.10;99.90;;;;;;5031433;28;20257;-77
2021/04/25 00:07:22;;;;;;;;;;;10.10;99.90;;;;;;5032062;28;19959;-77
2021/04/25 00:09:48;;;;;;;;;;;10.00;99.90;;;;;;5041829;28;19905;-77
2021/04/25 00:12:13;;;;;;;;;;;10.00;99.90;;;;;;5030830;28;20283;-77
2021/04/25 00:14:39;;;;;;;;;;;10.00;99.90;;;;;;5046255;28;19913;-76
2021/04/25 00:17:04;;;;;;;;;;;10.00;99.90;;;;;;5030222;28;19917;-76
2021/04/25 00:19:30;;;;;;;;;;;9.90;99.90;;;;;;5030282;28;20303;-76
2021/04/25 00:21:56;;;;;;;;;;;9.90;99.90;;;;;;5030260;28;19919;-75
2021/04/25 00:24:21;;;;;;;;;;;9.90;99.90;;;;;;5030700;28;19905;-76
2021/04/25 00:26:47;;;;;;;;;;;9.90;99.90;;;;;;5025241;28;20336;-76
2021/04/25 00:29:12;;;;;;;;;;;9.90;99.90;;;;;;5029828;28;19913;-76
2021/04/25 00:31:39;;;;;;;;;;;9.90;99.90;;;;;;5029710;28;19916;-75
2021/04/25 00:34:04;;;;;;;;;;;9.90;99.90;;;;;;5045793;28;20359;-76
2021/04/25 00:36:33;;;;;;;;;;;9.90;99.90;;;;;;5030324;28;19916;-76
2021/04/25 00:38:59;;;;;;;;;;;9.90;99.90;;;;;;5030547;28;19912;-77
2021/04/25 00:41:24;;;;;;;;;;;9.90;99.90;;;;;;5030259;28;19912;-76
2021/04/25 00:43:50;;;;;;;;;;;9.90;99.90;;;;;;5030601;28;20371;-76
2021/04/25 00:46:16;;;;;;;;;;;9.90;99.90;;;;;;5030496;28;19909;-77
2021/04/25 00:48:41;;;;;;;;;;;9.80;99.90;;;;;;5030811;28;20170;-77
2021/04/25 00:51:09;;;;;;;;;;;9.80;99.90;;;;;;5028026;28;20413;-76
2021/04/25 00:53:34;;;;;;;;;;;9.80;99.90;;;;;;5030387;28;19905;-76
2021/04/25 00:56:00;;;;;;;;;;;9.80;99.90;;;;;;5045106;28;19978;-77
2021/04/25 00:58:25;;;;;;;;;;;9.70;99.90;;;;;;5030788;28;20350;-77
2021/04/25 01:00:51;;;;;;;;;;;9.70;99.90;;;;;;5029514;28;19905;-77
2021/04/25 01:03:20;;;;;;;;;;;9.70;99.90;;;;;;5044807;28;19911;-77
2021/04/25 01:05:45;;;;;;;;;;;9.60;99.90;;;;;;5030126;28;19974;-77
2021/04/25 01:08:12;;;;;;;;;;;9.70;99.90;;;;;;5030552;28;20427;-77
2021/04/25 01:10:38;;;;;;;;;;;9.70;99.90;;;;;;5030298;28;19928;-76
2021/04/25 01:13:04;;;;;;;;;;;9.70;99.90;;;;;;5030137;28;20368;-76
2021/04/25 01:15:29;;;;;;;;;;;9.70;99.90;;;;;;5031067;28;20167;-76
2021/04/25 01:17:55;;;;;;;;;;;9.60;99.90;;;;;;5033663;28;19913;-77
2021/04/25 01:20:21;;;;;;;;;;;9.70;99.90;;;;;;5033716;28;19905;-78
2021/04/25 01:22:47;;;;;;;;;;;9.70;99.90;;;;;;5033196;28;20295;-77
2021/04/25 01:25:14;;;;;;;;;;;9.60;99.90;;;;;;5034121;28;19905;-77
2021/04/25 01:27:40;;;;;;;;;;;9.60;99.90;;;;;;5048963;28;19952;-77
2021/04/25 01:30:06;;;;;;;;;;;9.60;99.90;;;;;;5014332;28;20335;-79
2021/04/25 01:32:32;;;;;;;;;;;9.50;99.90;;;;;;5045057;28;19967;-78
2021/04/25 01:35:00;;;;;;;;;;;9.60;99.90;;;;;;5033441;28;19913;-78
2021/04/25 01:37:26;;;;;;;;;;;9.50;99.90;;;;;;5033160;28;20003;-78
2021/04/25 01:39:52;;;;;;;;;;;9.50;99.90;;;;;;5033321;28;19959;-78
2021/04/25 01:42:18;;;;;;;;;;;9.40;99.90;;;;;;5032953;28;19924;-77
2021/04/25 01:44:44;;;;;;;;;;;9.40;99.90;;;;;;5048867;28;19909;-78
2021/04/25 01:47:09;;;;;;;;;;;9.40;99.90;;;;;;5033186;28;20351;-76
2021/04/25 01:49:35;;;;;;;;;;;9.30;99.90;;;;;;5032518;28;20004;-76
2021/04/25 01:52:01;;;;;;;;;;;9.30;99.90;;;;;;5033317;28;19963;-77
2021/04/25 01:54:27;;;;;;;;;;;9.30;99.90;;;;;;5033890;28;19913;-77
2021/04/25 01:56:52;;;;;;;;;;;9.30;99.90;;;;;;5031765;28;19951;-77
2021/04/25 01:59:18;;;;;;;;;;;9.40;99.90;;;;;;5034135;28;19958;-77
2021/04/25 02:01:43;;;;;;;;;;;9.40;99.90;;;;;;5031837;28;20253;-77
2021/04/25 02:04:09;;;;;;;;;;;9.40;99.90;;;;;;5033468;28;19926;-78
2021/04/25 02:06:36;;;;;;;;;;;9.40;99.90;;;;;;5032575;28;19909;-76
2021/04/25 02:09:03;;;;;;;;;;;9.40;99.90;;;;;;5025065;28;19905;-77
2021/04/25 02:11:28;;;;;;;;;;;9.50;99.90;;;;;;5032626;28;19909;-78
2021/04/25 02:13:54;;;;;;;;;;;9.50;99.90;;;;;;5033550;28;19935;-79
2021/04/25 02:16:22;;;;;;;;;;;9.50;99.90;;;;;;5032610;28;19917;-78
2021/04/25 02:18:48;;;;;;;;;;;9.60;99.90;;;;;;5032963;28;19925;-78
2021/04/25 02:21:13;;;;;;;;;;;9.60;99.90;;;;;;5031502;28;20302;-78
2021/04/25 02:23:39;;;;;;;;;;;9.70;99.90;;;;;;5033226;28;19905;-78
2021/04/25 02:26:05;;;;;;;;;;;9.70;99.90;;;;;;5032437;28;19948;-78
2021/04/25 02:28:30;;;;;;;;;;;9.70;99.90;;;;;;5047308;28;19905;-78
2021/04/25 02:30:56;;;;;;;;;;;9.70;99.90;;;;;;5032514;28;19963;-78
2021/04/25 02:33:21;;;;;;;;;;;9.70;99.90;;;;;;5047753;28;19904;-78
2021/04/25 02:35:47;;;;;;;;;;;9.70;99.90;;;;;;5047914;28;19982;-78
2021/04/25 02:38:13;;;;;;;;;;;9.70;99.90;;;;;;5031395;28;19909;-79
2021/04/25 02:40:39;;;;;;;;;;;9.70;99.90;;;;;;5032409;28;20429;-78
2021/04/25 02:43:04;;;;;;;;;;;9.80;99.90;;;;;;5032460;28;19917;-79
2021/04/25 02:45:31;;;;;;;;;;;9.80;99.90;;;;;;5032814;28;19991;-78
2021/04/25 02:48:00;;;;;;;;;;;9.80;99.90;;;;;;5032248;28;20423;-77
2021/04/25 02:50:29;;;;;;;;;;;9.90;99.90;;;;;;5047684;28;20283;-78
2021/04/25 02:52:55;;;;;;;;;;;9.90;99.90;;;;;;5031779;28;19909;-77
2021/04/25 02:55:20;;;;;;;;;;;9.90;99.90;;;;;;5032370;28;20074;-77
2021/04/25 02:57:46;;;;;;;;;;;9.90;99.90;;;;;;5031950;28;19909;-77
2021/04/25 03:00:13;;;;;;;;;;;9.80;99.90;;;;;;5048482;28;19987;-77
2021/04/25 03:02:39;;;;;;;;;;;9.80;99.90;;;;;;5034295;28;19952;-78
2021/04/25 03:05:05;;;;;;;;;;;9.90;99.90;;;;;;5031875;28;19940;-77
2021/04/25 03:07:31;;;;;;;;;;;9.80;99.90;;;;;;5031701;28;19909;-77
2021/04/25 03:09:57;;;;;;;;;;;9.80;99.90;;;;;;5031961;28;19916;-77
2021/04/25 03:12:22;;;;;;;;;;;9.70;99.90;;;;;;5031706;28;19935;-77
2021/04/25 03:14:51;;;;;;;;;;;9.70;99.90;;;;;;5031775;28;20011;-77
2021/04/25 03:17:16;;;;;;;;;;;9.70;99.90;;;;;;5030448;28;19916;-77
2021/04/25 03:19:42;;;;;;;;;;;9.70;99.90;;;;;;5031790;28;20007;-77
2021/04/25 03:22:07;;;;;;;;;;;9.70;99.90;;;;;;5031332;28;19999;-77
2021/04/25 03:24:33;;;;;;;;;;;9.60;99.90;;;;;;5047349;28;19905;-77
2021/04/25 03:27:00;;;;;;;;;;;9.70;99.90;;;;;;5031604;28;19909;-77
2021/04/25 03:29:26;;;;;;;;;;;9.70;99.90;;;;;;5030553;28;19912;-77
2021/04/25 03:31:52;;;;;;;;;;;9.70;99.90;;;;;;5031371;28;19909;-77
2021/04/25 03:34:17;;;;;;;;;;;9.70;99.90;;;;;;5031952;28;19920;-77
2021/04/25 03:36:43;;;;;;;;;;;9.70;99.90;;;;;;5031760;28;19908;-77
2021/04/25 03:39:08;;;;;;;;;;;9.60;99.90;;;;;;5032489;28;19954;-77
2021/04/25 03:41:34;;;;;;;;;;;9.50;99.90;;;;;;5033190;28;20321;-77
2021/04/25 03:44:00;;;;;;;;;;;9.40;99.90;;;;;;5034809;28;19909;-77
2021/04/25 03:46:25;;;;;;;;;;;9.40;99.90;;;;;;5051011;28;20303;-77
2021/04/25 03:48:51;;;;;;;;;;;9.40;99.90;;;;;;5040469;28;19905;-77
2021/04/25 03:51:16;;;;;;;;;;;9.50;99.90;;;;;;5050692;28;19937;-77
2021/04/25 03:53:42;;;;;;;;;;;9.50;99.90;;;;;;5045111;28;20004;-77
2021/04/25 03:56:08;;;;;;;;;;;9.50;99.90;;;;;;5034789;28;19913;-76
2021/04/25 03:58:33;;;;;;;;;;;9.60;99.90;;;;;;5046588;28;19905;-78
2021/04/25 04:00:59;;;;;;;;;;;9.60;99.90;;;;;;5067521;28;19911;-77
2021/04/25 04:03:24;;;;;;;;;;;9.70;99.90;;;;;;5043894;28;19905;-77
2021/04/25 04:05:50;;;;;;;;;;;9.60;99.90;;;;;;5032356;28;20000;-77
2021/04/25 04:08:15;;;;;;;;;;;9.50;99.90;;;;;;5032055;28;19909;-77
2021/04/25 04:10:41;;;;;;;;;;;9.50;99.90;;;;;;5031843;28;20276;-77
2021/04/25 04:13:10;;;;;;;;;;;9.50;99.90;;;;;;5031222;28;19905;-78
2021/04/25 04:15:36;;;;;;;;;;;9.50;99.90;;;;;;5031421;28;20376;-77
2021/04/25 04:18:01;;;;;;;;;;;9.60;99.90;;;;;;5030926;28;19940;-77
2021/04/25 04:20:27;;;;;;;;;;;9.50;99.90;;;;;;5029702;28;19909;-77
2021/04/25 04:22:52;;;;;;;;;;;9.50;99.90;;;;;;5030503;28;19916;-77
2021/04/25 04:25:18;;;;;;;;;;;9.50;99.90;;;;;;5031021;28;19905;-77
2021/04/25 04:27:43;;;;;;;;;;;9.50;99.90;;;;;;5030531;28;19916;-76
2021/04/25 04:30:09;;;;;;;;;;;9.40;99.90;;;;;;5030872;28;19905;-76
2021/04/25 04:32:35;;;;;;;;;;;9.40;99.90;;;;;;5039795;28;19909;-76
2021/04/25 04:35:00;;;;;;;;;;;9.40;99.90;;;;;;5030917;28;19963;-77
2021/04/25 04:37:26;;;;;;;;;;;9.40;99.90;;;;;;5045697;28;19909;-77
2021/04/25 04:39:52;;;;;;;;;;;9.30;99.90;;;;;;5031232;28;19905;-77
2021/04/25 04:42:17;;;;;;;;;;;9.30;99.90;;;;;;5030595;28;20381;-76
2021/04/25 04:44:43;;;;;;;;;;;9.30;99.90;;;;;;5031205;28;19905;-77
2021/04/25 04:47:09;;;;;;;;;;;9.30;99.90;;;;;;5029845;28;19960;-77
2021/04/25 04:49:35;;;;;;;;;;;9.30;99.90;;;;;;5030899;28;19905;-76
2021/04/25 04:52:01;;;;;;;;;;;9.40;99.90;;;;;;5032470;28;19908;-77
2021/04/25 04:54:26;;;;;;;;;;;9.40;99.90;;;;;;5034980;28;19915;-77
2021/04/25 04:56:52;;;;;;;;;;;9.50;99.90;;;;;;5034934;28;19916;-77
2021/04/25 04:59:17;;;;;;;;;;;9.50;99.90;;;;;;5035597;28;19971;-76
2021/04/25 05:01:43;;;;;;;;;;;9.60;99.90;;;;;;5034340;28;19909;-76
2021/04/25 05:04:09;;;;;;;;;;;9.60;99.90;;;;;;5049784;28;20003;-77
2021/04/25 05:06:34;;;;;;;;;;;9.60;99.90;;;;;;5034139;28;19935;-76
2021/04/25 05:09:00;;;;;;;;;;;9.60;99.90;;;;;;5034707;28;20387;-77
2021/04/25 05:11:25;;;;;;;;;;;9.70;99.90;;;;;;5034216;28;19909;-77
2021/04/25 05:13:51;;;;;;;;;;;9.80;99.90;;;;;;5034307;28;19964;-77
2021/04/25 05:16:16;;;;;;;;;;;9.90;99.90;;;;;;5034302;28;20409;-77
2021/04/25 05:18:42;;;;;;;;;;;10.00;99.90;;;;;;5034391;28;20397;-76
2021/04/25 05:21:10;;;;;;;;;;;10.00;99.90;;;;;;5033994;28;20625;-77
2021/04/25 05:23:36;;;;;;;;;;;10.20;99.90;;;;;;5033179;28;19932;-78
2021/04/25 05:26:02;;;;;;;;;;;10.30;99.90;;;;;;5049469;28;19924;-78
2021/04/25 05:28:29;;;;;;;;;;;10.40;99.90;;;;;;5034456;28;19909;-78
2021/04/25 05:30:55;;;;;;;;;;;10.40;99.90;;;;;;5049530;28;19919;-78
2021/04/25 05:33:21;;;;;;;;;;;10.50;99.90;;;;;;5034202;28;19905;-78
2021/04/25 05:35:47;;;;;;;;;;;10.60;99.90;;;;;;5048951;28;20015;-78
2021/04/25 05:38:13;;;;;;;;;;;10.70;99.90;;;;;;5033972;28;19912;-78
2021/04/25 05:40:39;;;;;;;;;;;10.80;99.90;;;;;;5033689;28;19905;-78
2021/04/25 05:43:04;;;;;;;;;;;11.00;99.90;;;;;;5049202;28;19917;-78
2021/04/25 05:45:30;;;;;;;;;;;11.10;99.90;;;;;;5034040;28;19928;-76
2021/04/25 05:47:56;;;;;;;;;;;11.20;99.90;;;;;;5033325;28;19939;-78
2021/04/25 05:50:22;;;;;;;;;;;11.30;99.90;;;;;;5033968;28;19905;-78
2021/04/25 05:52:48;;;;;;;;;;;11.40;99.90;;;;;;5031921;28;19909;-78
2021/04/25 05:55:14;;;;;;;;;;;11.50;99.90;;;;;;5033501;28;20284;-77
2021/04/25 05:57:39;;;;;;;;;;;11.70;99.90;;;;;;5033174;28;19956;-77
2021/04/25 06:00:06;;;;;;;;;;;11.80;99.90;;;;;;5033505;28;19912;-77
2021/04/25 06:02:32;;;;;;;;;;;11.90;99.90;;;;;;5033087;28;19916;-78
2021/04/25 06:04:57;;;;;;;;;;;11.90;99.90;;;;;;5033242;28;19909;-78
2021/04/25 06:07:23;;;;;;;;;;;12.00;99.90;;;;;;5032934;28;19909;-77
2021/04/25 06:09:48;;;;;;;;;;;12.00;99.90;;;;;;5033183;28;19905;-77
2021/04/25 06:12:14;;;;;;;;;;;12.10;99.90;;;;;;5032852;28;20125;-78
2021/04/25 06:14:40;;;;;;;;;;;12.20;99.90;;;;;;5033466;28;19920;-78
2021/04/25 06:17:05;;;;;;;;;;;12.20;99.90;;;;;;5032738;28;19913;-78
2021/04/25 06:19:31;;;;;;;;;;;12.20;99.90;;;;;;5048425;28;20360;-77
2021/04/25 06:21:56;;;;;;;;;;;12.40;99.90;;;;;;5032939;28;19920;-77
2021/04/25 06:24:22;;;;;;;;;;;12.50;99.90;;;;;;5033073;28;19905;-79
2021/04/25 06:26:47;;;;;;;;;;;12.60;99.90;;;;;;5032703;28;19920;-77
2021/04/25 06:29:13;;;;;;;;;;;12.70;99.90;;;;;;5033028;28;20244;-78
2021/04/25 06:31:39;;;;;;;;;;;12.70;99.90;;;;;;5032544;28;19909;-78
2021/04/25 06:34:04;;;;;;;;;;;12.80;99.90;;;;;;5032788;28;20004;-77
2021/04/25 06:36:30;;;;;;;;;;;12.90;99.90;;;;;;5030802;28;19913;-77
2021/04/25 06:38:55;;;;;;;;;;;13.10;99.90;;;;;;5033081;28;20079;-78
2021/04/25 06:41:21;;;;;;;;;;;13.20;99.90;;;;;;5032411;28;19909;-77
2021/04/25 06:43:46;;;;;;;;;;;13.50;99.90;;;;;;5032420;28;20191;-77
2021/04/25 06:46:12;;;;;;;;;;;13.60;99.90;;;;;;5032478;28;19909;-78
2021/04/25 06:48:37;;;;;;;;;;;13.70;99.90;;;;;;5032309;28;19952;-77
2021/04/25 06:51:04;;;;;;;;;;;13.80;99.90;;;;;;5032291;28;19909;-76
2021/04/25 06:53:30;;;;;;;;;;;14.00;99.90;;;;;;5031525;28;19901;-77
2021/04/25 06:55:55;;;;;;;;;;;14.10;99.90;;;;;;5032236;28;19975;-78
2021/04/25 06:58:21;;;;;;;;;;;14.10;99.90;;;;;;5032667;28;19936;-76
2021/04/25 07:00:47;;;;;;;;;;;14.20;99.90;;;;;;5032059;28;19952;-77
2021/04/25 07:03:12;;;;;;;;;;;14.40;99.90;;;;;;5032436;28;19948;-77
2021/04/25 07:05:39;;;;;;;;;;;14.40;99.90;;;;;;5032271;28;19912;-77
2021/04/25 07:08:05;;;;;;;;;;;14.50;99.90;;;;;;5032206;28;19909;-79
2021/04/25 07:10:30;;;;;;;;;;;14.60;99.90;;;;;;5032504;28;19905;-80
2021/04/25 07:12:56;;;;;;;;;;;14.70;99.90;;;;;;5031378;28;19909;-79
2021/04/25 07:15:21;;;;;;;;;;;14.80;99.90;;;;;;5032423;28;20436;-81
2021/04/25 07:17:47;;;;;;;;;;;14.90;99.90;;;;;;5041271;28;19999;-79
2021/04/25 07:20:13;;;;;;;;;;;14.90;99.90;;;;;;5032238;28;20087;-79
2021/04/25 07:22:38;;;;;;;;;;;15.00;99.90;;;;;;5031800;28;19909;-78
2021/04/25 07:25:05;;;;;;;;;;;15.10;99.90;;;;;;5030778;28;19905;-79
2021/04/25 07:27:30;;;;;;;;;;;15.10;99.90;;;;;;5031736;28;20260;-78
2021/04/25 07:29:56;;;;;;;;;;;15.10;99.90;;;;;;5032550;28;19928;-79
2021/04/25 07:32:21;;;;;;;;;;;15.20;99.90;;;;;;5031628;28;19909;-78
2021/04/25 07:34:47;;;;;;;;;;;15.20;99.90;;;;;;5031906;28;19916;-78
2021/04/25 07:37:13;;;;;;;;;;;15.30;99.90;;;;;;5031554;28;19948;-80
2021/04/25 07:39:39;;;;;;;;;;;15.50;99.90;;;;;;5032004;28;19959;-80
2021/04/25 07:42:05;;;;;;;;;;;15.50;99.90;;;;;;5031533;28;19921;-77
2021/04/25 07:44:31;;;;;;;;;;;15.50;99.90;;;;;;5031749;28;19905;-79
2021/04/25 07:46:59;;;;;;;;;;;15.50;99.90;;;;;;5031797;28;19916;-79
2021/04/25 07:49:28;;;;;;;;;;;15.50;99.90;;;;;;5031994;28;19905;-80
2021/04/25 07:51:54;;;;;;;;;;;15.40;99.90;;;;;;5031330;28;20142;-79
2021/04/25 07:54:19;;;;;;;;;;;15.40;99.90;;;;;;5031766;28;20171;-78
2021/04/25 07:56:45;;;;;;;;;;;15.50;99.90;;;;;;5031193;28;19920;-76
2021/04/25 07:59:10;;;;;;;;;;;15.40;99.90;;;;;;5046775;28;19936;-77
2021/04/25 08:01:36;;;;;;;;;;;15.20;99.90;;;;;;5029488;28;20351;-76
2021/04/25 08:04:01;;;;;;;;;;;15.20;99.90;;;;;;5026705;28;19996;-75
2021/04/25 08:06:27;;;;;;;;;;;15.30;99.90;;;;;;5044308;28;19908;-77
2021/04/25 08:08:53;;;;;;;;;;;15.30;99.90;;;;;;5037674;28;20418;-77
2021/04/25 08:11:19;;;;;;;;;;;15.40;99.90;;;;;;5031443;28;20372;-77
2021/04/25 08:13:45;;;;;;;;;;;15.50;99.90;;;;;;5040347;28;19916;-78
2021/04/25 08:16:13;;;;;;;;;;;15.50;99.90;;;;;;5052674;28;19944;-76
2021/04/25 08:18:39;;;;;;;;;;;15.70;99.90;;;;;;5046578;28;19905;-76
2021/04/25 08:21:05;;;;;;;;;;;15.70;99.90;;;;;;5032707;28;19920;-80
2021/04/25 08:23:30;;;;;;;;;;;15.70;99.90;;;;;;5031524;28;19905;-77
2021/04/25 08:25:56;;;;;;;;;;;15.70;99.90;;;;;;5032611;28;20278;-76
2021/04/25 08:28:23;;;;;;;;;;;15.80;99.90;;;;;;5050446;28;19948;-76
2021/04/25 08:30:49;;;;;;;;;;;15.90;99.90;;;;;;5049977;28;20318;-76
2021/04/25 08:33:15;;;;;;;;;;;16.00;99.60;;;;;;5034904;28;19905;-77
2021/04/25 08:35:40;;;;;;;;;;;16.00;98.40;;;;;;5049660;28;20358;-76
2021/04/25 08:38:06;;;;;;;;;;;15.90;98.10;;;;;;5034793;28;19909;-75
2021/04/25 08:40:31;;;;;;;;;;;16.00;96.90;;;;;;5034758;28;19944;-78
2021/04/25 08:42:58;;;;;;;;;;;16.00;97.60;;;;;;5034469;28;19917;-80
2021/04/25 08:45:23;;;;;;;;;;;16.10;96.60;;;;;;5034967;28;19905;-76
2021/04/25 08:47:49;;;;;;;;;;;16.10;97.20;;;;;;5034205;28;19932;-82
2021/04/25 08:50:15;;;;;;;;;;;16.20;97.00;;;;;;5034589;28;19988;-76
2021/04/25 08:52:40;;;;;;;;;;;16.30;96.40;;;;;;5034155;28;19995;-77
2021/04/25 08:55:06;;;;;;;;;;;16.30;96.50;;;;;;5034667;28;20291;-75
2021/04/25 08:57:32;;;;;;;;;;;16.30;97.60;;;;;;5034237;28;19909;-79
2021/04/25 08:59:57;;;;;;;;;;;16.40;97.60;;;;;;5034524;28;19971;-75
2021/04/25 09:02:23;;;;;;;;;;;16.50;96.20;;;;;;5032565;28;19909;-77
2021/04/25 09:04:48;;;;;;;;;;;16.50;97.40;;;;;;5034407;28;19931;-78
2021/04/25 09:07:16;;;;;;;;;;;16.50;97.50;;;;;;5033832;28;19932;-77
2021/04/25 09:09:49;;;;;;;;;;;16.60;96.40;;;;;;5034290;28;20252;-77
2021/04/25 09:12:29;;;;;;;;;;;16.60;96.80;;;;;;5033775;28;19909;-75
2021/04/25 09:14:55;;;;;;;;;;;16.80;96.70;;;;;;5033108;28;19913;-76
2021/04/25 09:17:20;;;;;;;;;;;16.80;96.30;;;;;;5033795;28;20291;-77
2021/04/25 09:19:52;;;;;;;;;;;16.90;95.70;;;;;;5033858;28;19948;-76
2021/04/25 09:22:21;;;;;;;;;;;16.90;95.20;;;;;;5033485;28;19913;-76
2021/04/25 09:24:47;;;;;;;;;;;16.90;96.20;;;;;;5034127;28;19905;-77
2021/04/25 09:27:23;;;;;;;;;;;16.80;94.20;;;;;;5033442;28;19920;-76
2021/04/25 09:29:59;;;;;;;;;;;16.80;94.40;;;;;;5033663;28;19905;-76
2021/04/25 09:32:29;;;;;;;;;;;16.90;94.90;;;;;;5033122;28;19931;-77
2021/04/25 09:35:10;;;;;;;;;;;17.00;94.10;;;;;;5033979;28;19920;-77
2021/04/25 09:37:37;;;;;;;;;;;17.00;94.30;;;;;;5032455;28;19948;-75
2021/04/25 09:40:05;;;;;;;;;;;17.00;94.30;;;;;;5034019;28;19951;-77
2021/04/25 09:42:31;;;;;;;;;;;17.00;95.10;;;;;;5033253;28;19943;-77
2021/04/25 09:44:57;;;;;;;;;;;17.00;95.40;;;;;;5033699;28;19905;-76
2021/04/25 09:47:30;;;;;;;;;;;17.20;94.50;;;;;;5033092;28;19959;-77
2021/04/25 09:50:00;;;;;;;;;;;17.20;95.00;;;;;;5033410;28;19905;-75
2021/04/25 09:52:25;;;;;;;;;;;17.30;94.00;;;;;;5033273;28;19916;-76
2021/04/25 09:54:51;;;;;;;;;;;17.30;94.20;;;;;;5033342;28;19912;-77
2021/04/25 09:57:32;;;;;;;;;;;17.20;94.90;;;;;;5033166;28;19913;-77
2021/04/25 09:59:58;;;;;;;;;;;17.30;95.10;;;;;;5033261;28;19964;-79
2021/04/25 10:02:23;;;;;;;;;;;17.20;94.60;;;;;;5047871;28;20402;-75
2021/04/25 10:04:50;;;;;;;;;;;17.10;94.40;;;;;;5033339;28;20351;-76
2021/04/25 10:07:16;;;;;;;;;;;17.30;94.70;;;;;;5032804;28;20368;-77
2021/04/25 10:09:41;;;;;;;;;;;17.30;94.40;;;;;;5033332;28;20001;-77
2021/04/25 10:12:07;;;;;;;;;;;17.40;94.90;;;;;;5032797;28;20371;-77
2021/04/25 10:14:34;;;;;;;;;;;17.50;95.70;;;;;;5031922;28;19936;-74
2021/04/25 10:17:01;;;;;;;;;;;17.60;97.50;;;;;;5031201;28;19909;-76
2021/04/25 10:19:26;;;;;;;;;;;17.80;97.00;;;;;;5032489;28;19928;-75
2021/04/25 10:21:52;;;;;;;;;;;17.80;95.10;;;;;;5032562;28;20364;-76
2021/04/25 10:24:21;;;;;;;;;;;17.70;97.80;;;;;;5032829;28;19905;-76
2021/04/25 10:27:06;;;;;;;;;;;17.80;95.30;;;;;;5032562;28;19920;-75
2021/04/25 10:29:34;;;;;;;;;;;17.80;93.20;;;;;;5033037;28;19909;-75
2021/04/25 10:32:01;;;;;;;;;;;17.60;94.90;;;;;;5032390;28;19911;-77
2021/04/25 10:34:27;;;;;;;;;;;17.60;93.50;;;;;;5032556;28;19966;-76
2021/04/25 10:36:55;;;;;;;;;;;17.50;94.80;;;;;;5032237;28;19984;-77
2021/04/25 10:39:37;;;;;;;;;;;17.70;93.50;;;;;;5032562;28;20363;-77
2021/04/25 10:42:20;;;;;;;;;;;17.90;94.10;;;;;;5032103;28;20268;-76
2021/04/25 10:44:58;;;;;;;;;;;18.10;93.70;;;;;;5048022;28;19944;-76
2021/04/25 10:47:28;;;;;;;;;;;18.20;94.10;;;;;;5030882;28;20355;-77
2021/04/25 10:49:54;;;;;;;;;;;18.30;92.60;;;;;;5031567;28;19905;-77
2021/04/25 10:52:21;;;;;;;;;;;18.30;92.30;;;;;;5031972;28;19916;-77
2021/04/25 10:55:05;;;;;;;;;;;18.10;92.20;;;;;;5032272;28;19916;-77
2021/04/25 10:57:31;;;;;;;;;;;18.00;94.00;;;;;;5031882;28;19992;-77
2021/04/25 11:00:16;;;;;;;;;;;18.20;92.80;;;;;;5032228;28;20001;-77
2021/04/25 11:02:46;;;;;;;;;;;18.20;91.20;;;;;;5030313;28;19915;-76
2021/04/25 11:05:15;;;;;;;;;;;18.20;90.80;;;;;;5030644;28;19958;-77
2021/04/25 11:07:41;;;;;;;;;;;18.20;90.20;;;;;;5031520;28;20368;-77
2021/04/25 11:10:07;;;;;;;;;;;18.20;91.10;;;;;;5032228;28;19905;-76
2021/04/25 11:12:41;;;;;;;;;;;18.30;90.30;;;;;;5033043;28;20398;-77
2021/04/25 11:15:07;;;;;;;;;;;18.40;91.20;;;;;;5036231;28;19913;-77
2021/04/25 11:17:32;;;;;;;;;;;18.40;87.70;;;;;;5029807;28;19916;-76
2021/04/25 11:19:58;;;;;;;;;;;18.60;86.70;;;;;;5030545;28;19905;-76
2021/04/25 11:22:42;;;;;;;;;;;18.70;83.90;;;;;;5046430;28;19952;-75
2021/04/25 11:25:27;;;;;;;;;;;18.70;84.50;;;;;;5027477;28;19906;-77
2021/04/25 11:27:52;;;;;;;;;;;18.70;86.40;;;;;;5045592;28;20291;-76
2021/04/25 11:30:34;;;;;;;;;;;18.60;85.00;;;;;;5030716;28;19905;-80
2021/04/25 11:33:35;;;;;;;;;;;18.50;88.90;;;;;;5031412;28;20027;-76
2021/04/25 11:36:19;;;;;;;;;;;18.50;85.50;;;;;;4992367;28;19977;-75
2021/04/25 11:38:46;;;;;;;;;;;18.50;85.80;;;;;;5027423;28;19928;-79
2021/04/25 11:41:12;;;;;;;;;;;18.40;87.30;;;;;;5029998;28;19905;-79
2021/04/25 11:43:41;;;;;;;;;;;18.60;88.40;;;;;;5030432;28;20193;-76
2021/04/25 11:46:07;;;;;;;;;;;18.60;84.00;;;;;;5031247;28;19916;-76
2021/04/25 11:48:33;;;;;;;;;;;18.40;89.80;;;;;;5031356;28;19905;-76
2021/04/25 11:50:59;;;;;;;;;;;18.20;91.00;;;;;;5031409;28;19957;-77
2021/04/25 11:53:31;;;;;;;;;;;18.00;90.60;;;;;;5031287;28;20018;-78
2021/04/25 11:55:56;;;;;;;;;;;18.00;92.70;;;;;;5031174;28;19948;-77
2021/04/25 11:58:25;;;;;;;;;;;18.10;93.00;;;;;;5031532;28;19998;-76
2021/04/25 12:00:51;;;;;;;;;;;18.30;93.30;;;;;;5029685;28;20265;-76
2021/04/25 12:03:18;;;;;;;;;;;18.80;91.30;;;;;;5031350;28;19912;-76
2021/04/25 12:05:44;;;;;;;;;;;18.90;91.00;;;;;;5030905;28;19911;-77
2021/04/25 12:08:10;;;;;;;;;;;19.30;87.30;;;;;;5030969;28;20000;-76
2021/04/25 12:10:37;;;;;;;;;;;20.90;82.50;;;;;;5046422;28;20383;-76
2021/04/25 12:13:07;;;;;;;;;;;22.30;72.40;;;;;;5029519;28;19905;-76
2021/04/25 12:15:39;;;;;;;;;;;23.30;68.10;;;;;;5031386;28;20375;-76
2021/04/25 12:18:05;;;;;;;;;;;23.90;61.10;;;;;;5030916;28;20010;-76
2021/04/25 12:20:30;;;;;;;;;;;24.20;59.70;;;;;;5031262;28;19960;-78
2021/04/25 12:22:56;;;;;;;;;;;24.70;57.00;;;;;;5032252;28;19912;-76
2021/04/25 12:25:22;;;;;;;;;;;25.30;54.30;;;;;;5051661;28;20367;-78
2021/04/25 12:27:52;;;;;;;;;;;25.00;52.20;;;;;;5033678;28;20292;-77
2021/04/25 12:30:22;;;;;;;;;;;25.80;50.10;;;;;;5031288;28;19916;-76
2021/04/25 12:32:58;;;;;;;;;;;26.80;47.80;;;;;;5032585;28;19909;-76
2021/04/25 12:35:25;;;;;;;;;;;28.00;45.90;;;;;;5050218;28;20350;-75
2021/04/25 12:37:51;;;;;;;;;;;27.70;42.90;;;;;;5047646;28;19963;-78
2021/04/25 12:40:25;;;;;;;;;;;27.20;45.60;;;;;;5031195;28;19909;-76
2021/04/25 12:43:10;;;;;;;;;;;27.90;44.30;;;;;;5045424;28;20349;-76
2021/04/25 12:45:36;;;;;;;;;;;28.50;42.90;;;;;;5030720;28;19962;-77
2021/04/25 12:48:29;;;;;;;;;;;28.00;40.30;;;;;;5029965;28;19905;-76
2021/04/25 12:51:18;;;;;;;;;;;28.70;41.50;;;;;;5028587;28;19913;-76
2021/04/25 12:54:04;;;;;;;;;;;28.80;41.50;;;;;;5025202;28;19956;-75
2021/04/25 12:56:32;;;;;;;;;;;27.60;41.90;;;;;;5028610;28;19917;-76
2021/04/25 12:59:16;;;;;;;;;;;27.90;41.70;;;;;;5030582;28;19916;-77
2021/04/25 13:01:43;;;;;;;;;;;28.10;40.80;;;;;;5030255;28;19944;-76
2021/04/25 13:04:22;;;;;;;;;;;28.00;40.80;;;;;;5030484;28;20252;-76
2021/04/25 13:06:48;;;;;;;;;;;28.90;38.90;;;;;;5030162;28;19913;-77
2021/04/25 13:09:14;;;;;;;;;;;29.20;40.50;;;;;;5030604;28;19916;-75
2021/04/25 13:11:40;;;;;;;;;;;30.10;39.40;;;;;;5031319;28;19940;-79
2021/04/25 13:14:16;;;;;;;;;;;29.60;35.60;;;;;;5034279;28;19904;-77
2021/04/25 13:16:42;;;;;;;;;;;29.40;37.60;;;;;;5033971;28;20410;-75
2021/04/25 13:19:26;;;;;;;;;;;29.00;36.20;;;;;;5034125;28;19909;-75
2021/04/25 13:21:52;;;;;;;;;;;27.70;39.70;;;;;;5033865;28;19916;-75
2021/04/25 13:24:17;;;;;;;;;;;27.30;39.60;;;;;;5032569;28;19909;-76
2021/04/25 13:26:44;;;;;;;;;;;27.40;40.50;;;;;;5033736;28;19916;-76
2021/04/25 13:29:17;;;;;;;;;;;28.00;39.70;;;;;;5033979;28;19905;-77
2021/04/25 13:31:45;;;;;;;;;;;27.60;40.90;;;;;;5033414;28;20465;-77
2021/04/25 13:34:11;;;;;;;;;;;27.90;39.80;;;;;;5033830;28;20171;-76
2021/04/25 13:36:37;;;;;;;;;;;28.20;40.20;;;;;;5033497;28;20466;-76
2021/04/25 13:39:04;;;;;;;;;;;27.80;39.80;;;;;;5033609;28;20391;-76
2021/04/25 13:41:30;;;;;;;;;;;26.40;40.30;;;;;;5033420;28;20020;-76
2021/04/25 13:43:55;;;;;;;;;;;27.60;43.00;;;;;;5033733;28;20071;-76
2021/04/25 13:46:21;;;;;;;;;;;28.10;39.80;;;;;;5033323;28;19963;-76
2021/04/25 13:48:46;;;;;;;;;;;28.30;39.30;;;;;;5033651;28;19905;-76
2021/04/25 13:51:12;;;;;;;;;;;27.40;40.50;;;;;;5032839;28;19905;-76
2021/04/25 13:53:38;;;;;;;;;;;27.40;41.40;;;;;;5048587;28;20028;-75
2021/04/25 13:56:04;;;;;;;;;;;26.80;41.30;;;;;;5048263;28;20399;-76
2021/04/25 13:58:30;;;;;;;;;;;26.90;42.50;;;;;;5029021;28;19980;-76
2021/04/25 14:00:55;;;;;;;;;;;26.20;41.80;;;;;;5033082;28;19913;-75
2021/04/25 14:03:21;;;;;;;;;;;26.90;42.30;;;;;;5033141;28;20411;-76
2021/04/25 14:05:47;;;;;;;;;;;28.70;37.80;;;;;;5033034;28;20037;-77
2021/04/25 14:08:12;;;;;;;;;;;27.90;38.10;;;;;;5032775;28;20011;-76
2021/04/25 14:10:38;;;;;;;;;;;28.30;38.50;;;;;;5032972;28;19992;-76
2021/04/25 14:13:03;;;;;;;;;;;29.60;38.30;;;;;;5033186;28;19909;-76
2021/04/25 14:15:29;;;;;;;;;;;30.60;34.80;;;;;;5033117;28;19975;-77
2021/04/25 14:17:56;;;;;;;;;;;29.80;34.60;;;;;;5047800;28;19963;-75
2021/04/25 14:20:22;;;;;;;;;;;29.20;36.10;;;;;;5032911;28;20040;-76